createdAt,value
2018-03-20T00:00:51.096Z,-3.07
2018-03-20T00:01:51.506Z,-3.06
2018-03-20T00:02:51.031Z,-3.12
2018-03-20T00:03:51.004Z,-3.09
2018-03-20T00:04:50.971Z,-3.12
2018-03-20T00:05:50.931Z,-3.14
2018-03-20T00:06:51.397Z,-3.25
2018-03-20T00:07:50.859Z,-3.30
2018-03-20T00:08:50.823Z,-3.33
2018-03-20T00:09:50.797Z,-3.29
2018-03-20T00:10:51.343Z,-3.32
2018-03-20T00:11:50.773Z,-3.32
2018-03-20T00:12:50.688Z,-3.30
2018-03-20T00:13:51.338Z,-3.24
2018-03-20T00:14:50.628Z,-3.28
2018-03-20T00:15:50.592Z,-3.24
2018-03-20T00:16:50.599Z,-3.21
2018-03-20T00:17:50.565Z,-3.29
2018-03-20T00:18:50.520Z,-3.25
2018-03-20T00:19:51.337Z,-3.22
2018-03-20T00:20:50.423Z,-3.17
2018-03-20T00:21:50.378Z,-3.28
2018-03-20T00:22:50.348Z,-3.18
2018-03-20T00:23:50.394Z,-3.15
2018-03-20T00:24:50.276Z,-3.17
2018-03-20T00:25:50.241Z,-3.21
2018-03-20T00:26:50.836Z,-3.25
2018-03-20T00:27:50.222Z,-3.19
2018-03-20T00:28:50.139Z,-3.25
2018-03-20T00:29:50.842Z,-3.28
2018-03-20T00:30:50.118Z,-3.25
2018-03-20T00:31:50.841Z,-3.17
2018-03-20T00:32:50.003Z,-3.29
2018-03-20T00:33:49.975Z,-3.21
2018-03-20T00:34:49.946Z,-3.24
2018-03-20T00:35:49.949Z,-3.18
2018-03-20T00:36:49.868Z,-3.21
2018-03-20T00:37:49.829Z,-3.24
2018-03-20T00:38:49.798Z,-3.25
2018-03-20T00:39:49.769Z,-3.21
2018-03-20T00:40:49.780Z,-3.28
2018-03-20T00:41:49.702Z,-3.17
2018-03-20T00:42:49.666Z,-3.33
2018-03-20T00:43:49.700Z,-3.30
2018-03-20T00:44:49.623Z,-3.40
2018-03-20T00:45:50.336Z,-3.43
2018-03-20T00:46:49.518Z,-3.63
2018-03-20T00:47:49.507Z,-3.68
2018-03-20T00:48:49.891Z,-3.82
2018-03-20T00:49:49.421Z,-3.76
2018-03-20T00:50:50.349Z,-3.88
2018-03-20T00:51:49.395Z,-3.93
2018-03-20T00:52:49.840Z,-3.93
2018-03-20T00:53:49.324Z,-3.90
2018-03-20T00:54:49.836Z,-3.83
2018-03-20T00:55:49.265Z,-3.96
2018-03-20T00:56:49.177Z,-3.91
2018-03-20T00:57:49.139Z,-3.93
2018-03-20T00:58:49.149Z,-3.90
2018-03-20T00:59:49.078Z,-3.93
2018-03-20T01:00:49.855Z,-3.97
2018-03-20T01:01:49.044Z,-3.96
2018-03-20T01:02:48.969Z,-3.93
2018-03-20T01:03:48.941Z,-3.93
2018-03-20T01:04:48.958Z,-3.91
2018-03-20T01:05:49.418Z,-3.97
2018-03-20T01:06:48.832Z,-3.93
2018-03-20T01:07:48.795Z,-3.91
2018-03-20T01:08:49.341Z,-3.82
2018-03-20T01:09:48.741Z,-3.77
2018-03-20T01:10:48.897Z,-3.77
2018-03-20T01:11:48.660Z,-3.80
2018-03-20T01:12:48.890Z,-3.77
2018-03-20T01:13:48.585Z,-3.76
2018-03-20T01:14:48.550Z,-3.79
2018-03-20T01:15:48.513Z,-3.79
2018-03-20T01:16:48.540Z,-3.77
2018-03-20T01:17:49.341Z,-3.82
2018-03-20T01:18:48.415Z,-3.77
2018-03-20T01:19:48.384Z,-3.71
2018-03-20T01:20:48.347Z,-3.80
2018-03-20T01:21:48.390Z,-3.90
2018-03-20T01:22:48.273Z,-3.82
2018-03-20T01:23:48.238Z,-3.80
2018-03-20T01:24:48.203Z,-3.82
2018-03-20T01:25:48.389Z,-3.88
2018-03-20T01:26:48.180Z,-3.76
2018-03-20T01:27:48.411Z,-3.88
2018-03-20T01:28:48.088Z,-3.86
2018-03-20T01:29:48.050Z,-3.83
2018-03-20T01:30:48.008Z,-3.76
2018-03-20T01:31:47.971Z,-3.82
2018-03-20T01:32:47.973Z,-3.82
2018-03-20T01:33:48.835Z,-3.77
2018-03-20T01:34:47.905Z,-3.80
2018-03-20T01:35:47.827Z,-3.90
2018-03-20T01:36:48.339Z,-3.80
2018-03-20T01:37:47.760Z,-3.82
2018-03-20T01:38:47.728Z,-3.82
2018-03-20T01:39:47.905Z,-3.94
2018-03-20T01:40:47.655Z,-3.93
2018-03-20T01:41:48.346Z,-3.97
2018-03-20T01:42:47.583Z,-4.11
2018-03-20T01:43:47.893Z,-4.11
2018-03-20T01:44:47.520Z,-4.14
2018-03-20T01:45:48.350Z,-4.25
2018-03-20T01:46:47.449Z,-4.18
2018-03-20T01:47:47.448Z,-4.16
2018-03-20T01:48:47.373Z,-4.19
2018-03-20T01:49:47.354Z,-4.25
2018-03-20T01:50:47.309Z,-4.32
2018-03-20T01:51:47.316Z,-4.36
2018-03-20T01:52:47.260Z,-4.32
2018-03-20T01:53:47.199Z,-4.36
2018-03-20T01:54:47.844Z,-4.33
2018-03-20T01:55:47.136Z,-4.33
2018-03-20T01:56:47.156Z,-4.36
2018-03-20T01:57:47.834Z,-4.39
2018-03-20T01:58:47.033Z,-4.37
2018-03-20T01:59:46.987Z,-4.33
2018-03-20T02:00:46.995Z,-4.26
2018-03-20T02:01:46.922Z,-4.29
2018-03-20T02:02:47.838Z,-4.25
2018-03-20T02:03:46.851Z,-4.19
2018-03-20T02:04:46.871Z,-4.19
2018-03-20T02:05:46.778Z,-4.25
2018-03-20T02:06:46.750Z,-4.19
2018-03-20T02:07:46.717Z,-4.23
2018-03-20T02:08:46.679Z,-4.19
2018-03-20T02:09:46.686Z,-4.22
2018-03-20T02:10:46.659Z,-4.15
2018-03-20T02:11:46.576Z,-4.16
2018-03-20T02:12:47.343Z,-4.11
2018-03-20T02:13:46.502Z,-4.16
2018-03-20T02:14:46.469Z,-4.19
2018-03-20T02:15:46.490Z,-4.14
2018-03-20T02:16:46.475Z,-4.19
2018-03-20T02:17:46.478Z,-4.29
2018-03-20T02:18:46.349Z,-4.23
2018-03-20T02:19:46.337Z,-4.27
2018-03-20T02:20:46.410Z,-4.16
2018-03-20T02:21:46.342Z,-4.22
2018-03-20T02:22:46.833Z,-4.18
2018-03-20T02:23:46.158Z,-4.14
2018-03-20T02:24:46.125Z,-4.14
2018-03-20T02:25:46.840Z,-4.12
2018-03-20T02:26:46.120Z,-4.08
2018-03-20T02:27:46.018Z,-4.09
2018-03-20T02:28:45.983Z,-4.11
2018-03-20T02:29:45.948Z,-4.06
2018-03-20T02:30:46.839Z,-4.09
2018-03-20T02:31:45.924Z,-4.06
2018-03-20T02:32:45.851Z,-4.01
2018-03-20T02:33:46.340Z,-4.00
2018-03-20T02:34:45.818Z,-4.06
2018-03-20T02:35:45.732Z,-4.12
2018-03-20T02:36:46.339Z,-4.06
2018-03-20T02:37:45.707Z,-4.11
2018-03-20T02:38:45.758Z,-4.14
2018-03-20T02:39:45.904Z,-4.15
2018-03-20T02:40:45.563Z,-4.12
2018-03-20T02:41:45.524Z,-4.18
2018-03-20T02:42:45.895Z,-4.23
2018-03-20T02:43:45.463Z,-4.18
2018-03-20T02:44:45.421Z,-4.27
2018-03-20T02:45:46.343Z,-4.26
2018-03-20T02:46:45.352Z,-4.26
2018-03-20T02:47:45.360Z,-4.27
2018-03-20T02:48:45.292Z,-4.16
2018-03-20T02:49:45.837Z,-4.18
2018-03-20T02:50:45.260Z,-4.22
2018-03-20T02:51:45.180Z,-4.18
2018-03-20T02:52:45.834Z,-4.18
2018-03-20T02:53:45.176Z,-4.25
2018-03-20T02:54:45.075Z,-4.33
2018-03-20T02:55:45.072Z,-4.32
2018-03-20T02:56:45.865Z,-4.32
2018-03-20T02:57:45.013Z,-4.44
2018-03-20T02:58:44.946Z,-4.32
2018-03-20T02:59:44.902Z,-4.32
2018-03-20T03:00:45.834Z,-4.33
2018-03-20T03:01:44.830Z,-4.30
2018-03-20T03:02:44.888Z,-4.33
2018-03-20T03:03:44.755Z,-4.39
2018-03-20T03:04:44.737Z,-4.32
2018-03-20T03:05:44.689Z,-4.33
2018-03-20T03:06:45.335Z,-4.34
2018-03-20T03:07:44.666Z,-4.30
2018-03-20T03:08:44.586Z,-4.30
2018-03-20T03:09:44.569Z,-4.34
2018-03-20T03:10:44.517Z,-4.32
2018-03-20T03:11:44.527Z,-4.41
2018-03-20T03:12:44.450Z,-4.47
2018-03-20T03:13:47.345Z,-4.47
2018-03-20T03:14:44.381Z,-4.45
2018-03-20T03:15:44.345Z,-4.41
2018-03-20T03:16:44.302Z,-4.39
2018-03-20T03:17:44.329Z,-4.43
2018-03-20T03:18:44.834Z,-4.36
2018-03-20T03:19:44.199Z,-4.30
2018-03-20T03:20:44.168Z,-4.33
2018-03-20T03:21:44.128Z,-4.41
2018-03-20T03:22:44.141Z,-4.34
2018-03-20T03:23:44.104Z,-4.29
2018-03-20T03:24:44.023Z,-4.32
2018-03-20T03:25:43.997Z,-4.25
2018-03-20T03:26:43.959Z,-4.25
2018-03-20T03:27:43.932Z,-4.30
2018-03-20T03:28:43.931Z,-4.23
2018-03-20T03:29:43.848Z,-4.26
2018-03-20T03:30:43.813Z,-4.29
2018-03-20T03:31:43.818Z,-4.26
2018-03-20T03:32:43.744Z,-4.27
2018-03-20T03:33:43.713Z,-4.30
2018-03-20T03:34:43.718Z,-4.30
2018-03-20T03:35:43.642Z,-4.37
2018-03-20T03:36:43.605Z,-4.33
2018-03-20T03:37:43.568Z,-4.33
2018-03-20T03:38:43.538Z,-4.41
2018-03-20T03:39:43.540Z,-4.29
2018-03-20T03:40:43.468Z,-4.29
2018-03-20T03:41:43.428Z,-4.23
2018-03-20T03:42:43.394Z,-4.26
2018-03-20T03:43:43.367Z,-4.33
2018-03-20T03:44:43.367Z,-4.27
2018-03-20T03:45:43.299Z,-4.30
2018-03-20T03:46:43.277Z,-4.29
2018-03-20T03:47:43.250Z,-4.27
2018-03-20T03:48:43.255Z,-4.26
2018-03-20T03:49:43.272Z,-4.19
2018-03-20T03:50:43.188Z,-4.27
2018-03-20T03:51:43.088Z,-4.16
2018-03-20T03:52:43.052Z,-4.27
2018-03-20T03:53:43.007Z,-4.25
2018-03-20T03:54:42.979Z,-4.30
2018-03-20T03:55:42.990Z,-4.32
2018-03-20T03:56:42.904Z,-4.30
2018-03-20T03:57:42.895Z,-4.30
2018-03-20T03:58:42.840Z,-4.23
2018-03-20T03:59:42.796Z,-4.26
2018-03-20T04:00:42.824Z,-4.22
2018-03-20T04:01:42.741Z,-4.34
2018-03-20T04:02:42.715Z,-4.27
2018-03-20T04:03:42.662Z,-4.25
2018-03-20T04:04:42.621Z,-4.19
2018-03-20T04:05:42.887Z,-4.26
2018-03-20T04:06:42.599Z,-4.23
2018-03-20T04:07:42.517Z,-4.25
2018-03-20T04:08:43.335Z,-4.22
2018-03-20T04:09:42.445Z,-4.26
2018-03-20T04:10:42.459Z,-4.15
2018-03-20T04:11:42.383Z,-4.14
2018-03-20T04:12:42.378Z,-4.15
2018-03-20T04:13:42.381Z,-4.12
2018-03-20T04:14:42.276Z,-4.12
2018-03-20T04:15:42.260Z,-4.15
2018-03-20T04:16:42.249Z,-3.98
2018-03-20T04:17:42.168Z,-3.93
2018-03-20T04:18:42.174Z,-3.93
2018-03-20T04:19:42.110Z,-3.94
2018-03-20T04:20:42.069Z,-3.88
2018-03-20T04:21:42.073Z,-3.93
2018-03-20T04:22:41.996Z,-3.83
2018-03-20T04:23:41.971Z,-3.88
2018-03-20T04:24:41.930Z,-3.68
2018-03-20T04:25:41.934Z,-3.79
2018-03-20T04:26:41.869Z,-3.76
2018-03-20T04:27:41.826Z,-3.76
2018-03-20T04:28:41.794Z,-3.71
2018-03-20T04:29:41.764Z,-3.72
2018-03-20T04:30:41.771Z,-3.69
2018-03-20T04:31:41.750Z,-3.60
2018-03-20T04:32:41.652Z,-3.63
2018-03-20T04:33:41.659Z,-3.53
2018-03-20T04:34:41.585Z,-3.48
2018-03-20T04:35:41.551Z,-3.43
2018-03-20T04:36:41.519Z,-3.40
2018-03-20T04:37:41.488Z,-3.36
2018-03-20T04:38:41.497Z,-3.35
2018-03-20T04:39:41.413Z,-3.24
2018-03-20T04:40:41.380Z,-3.21
2018-03-20T04:41:41.344Z,-3.18
2018-03-20T04:42:41.358Z,-3.15
2018-03-20T04:43:41.276Z,-3.09
2018-03-20T04:44:41.245Z,-3.04
2018-03-20T04:45:41.218Z,-3.01
2018-03-20T04:46:41.184Z,-3.07
2018-03-20T04:47:41.186Z,-3.01
2018-03-20T04:48:41.112Z,-2.94
2018-03-20T04:49:41.076Z,-2.93
2018-03-20T04:50:41.046Z,-2.97
2018-03-20T04:51:41.008Z,-2.90
2018-03-20T04:52:41.011Z,-2.91
2018-03-20T04:53:41.000Z,-2.88
2018-03-20T04:54:40.908Z,-2.81
2018-03-20T04:55:40.884Z,-2.85
2018-03-20T04:56:40.840Z,-2.82
2018-03-20T04:57:40.832Z,-2.81
2018-03-20T04:58:40.830Z,-2.67
2018-03-20T04:59:40.735Z,-2.73
2018-03-20T05:00:40.697Z,-2.62
2018-03-20T05:01:40.663Z,-2.67
2018-03-20T05:02:40.644Z,-2.67
2018-03-20T05:03:40.656Z,-2.50
2018-03-20T05:04:40.565Z,-2.53
2018-03-20T05:05:40.532Z,-2.61
2018-03-20T05:06:40.498Z,-2.58
2018-03-20T05:07:40.474Z,-2.44
2018-03-20T05:08:40.485Z,-2.50
2018-03-20T05:09:40.393Z,-2.42
2018-03-20T05:10:40.362Z,-2.49
2018-03-20T05:11:40.337Z,-2.46
2018-03-20T05:12:40.301Z,-2.40
2018-03-20T05:13:40.314Z,-2.37
2018-03-20T05:14:40.226Z,-2.39
2018-03-20T05:15:40.241Z,-2.32
2018-03-20T05:16:40.166Z,-2.27
2018-03-20T05:17:40.132Z,-2.20
2018-03-20T05:18:40.150Z,-2.24
2018-03-20T05:19:40.085Z,-2.37
2018-03-20T05:20:40.109Z,-2.20
2018-03-20T05:21:40.010Z,-2.10
2018-03-20T05:22:39.966Z,-2.20
2018-03-20T05:23:39.937Z,-2.12
2018-03-20T05:24:39.916Z,-2.17
2018-03-20T05:25:42.156Z,-2.17
2018-03-20T05:26:39.829Z,-2.10
2018-03-20T05:27:39.799Z,-2.12
2018-03-20T05:28:39.763Z,-2.10
2018-03-20T05:29:39.796Z,-2.10
2018-03-20T05:30:39.700Z,-2.09
2018-03-20T05:31:39.682Z,-1.99
2018-03-20T05:32:39.636Z,-2.03
2018-03-20T05:33:39.598Z,-2.00
2018-03-20T05:34:39.619Z,-1.91
2018-03-20T05:35:39.573Z,-2.06
2018-03-20T05:36:39.505Z,-1.88
2018-03-20T05:37:39.463Z,-1.99
2018-03-20T05:38:39.450Z,-1.99
2018-03-20T05:39:39.399Z,-2.03
2018-03-20T05:40:39.427Z,-2.00
2018-03-20T05:41:39.349Z,-1.97
2018-03-20T05:42:39.300Z,-2.02
2018-03-20T05:43:39.305Z,-1.97
2018-03-20T05:44:39.234Z,-1.89
2018-03-20T05:45:39.271Z,-1.86
2018-03-20T05:46:39.192Z,-1.88
2018-03-20T05:47:39.173Z,-1.92
2018-03-20T05:48:39.111Z,-1.91
2018-03-20T05:49:39.079Z,-1.91
2018-03-20T05:50:39.077Z,-1.76
2018-03-20T05:51:39.022Z,-1.82
2018-03-20T05:52:38.984Z,-1.81
2018-03-20T05:53:38.935Z,-1.81
2018-03-20T05:54:38.902Z,-1.73
2018-03-20T05:55:38.930Z,-1.78
2018-03-20T05:56:38.891Z,-1.82
2018-03-20T05:57:38.805Z,-1.79
2018-03-20T05:58:38.792Z,-1.68
2018-03-20T05:59:38.740Z,-1.67
2018-03-20T06:00:38.720Z,-1.76
2018-03-20T06:01:38.720Z,-1.64
2018-03-20T06:02:38.698Z,-1.64
2018-03-20T06:03:38.609Z,-1.71
2018-03-20T06:04:38.590Z,-1.70
2018-03-20T06:05:38.553Z,-1.64
2018-03-20T06:06:38.518Z,-1.63
2018-03-20T06:07:38.535Z,-1.71
2018-03-20T06:08:38.446Z,-1.68
2018-03-20T06:09:38.419Z,-1.70
2018-03-20T06:10:38.383Z,-1.68
2018-03-20T06:11:38.391Z,-1.66
2018-03-20T06:12:38.315Z,-1.67
2018-03-20T06:13:38.297Z,-1.70
2018-03-20T06:14:38.255Z,-1.73
2018-03-20T06:15:38.236Z,-1.71
2018-03-20T06:16:38.227Z,-1.68
2018-03-20T06:17:38.169Z,-1.67
2018-03-20T06:18:38.208Z,-1.71
2018-03-20T06:19:38.084Z,-1.73
2018-03-20T06:20:38.062Z,-1.70
2018-03-20T06:21:38.028Z,-1.79
2018-03-20T06:22:38.040Z,-1.82
2018-03-20T06:23:38.005Z,-1.81
2018-03-20T06:24:37.957Z,-1.88
2018-03-20T06:25:37.914Z,-1.86
2018-03-20T06:26:37.862Z,-1.86
2018-03-20T06:27:37.830Z,-1.82
2018-03-20T06:28:37.835Z,-1.88
2018-03-20T06:29:37.765Z,-1.86
2018-03-20T06:30:37.741Z,-1.94
2018-03-20T06:31:37.696Z,-1.82
2018-03-20T06:32:37.713Z,-1.81
2018-03-20T06:33:37.656Z,-1.84
2018-03-20T06:34:37.620Z,-1.84
2018-03-20T06:35:37.579Z,-1.86
2018-03-20T06:36:37.531Z,-1.89
2018-03-20T06:37:37.550Z,-1.88
2018-03-20T06:38:37.507Z,-1.99
2018-03-20T06:39:37.447Z,-1.99
2018-03-20T06:40:37.408Z,-1.91
2018-03-20T06:41:37.360Z,-1.92
2018-03-20T06:42:37.327Z,-1.91
2018-03-20T06:43:37.344Z,-1.94
2018-03-20T06:44:37.276Z,-1.88
2018-03-20T06:45:37.260Z,-1.91
2018-03-20T06:46:37.242Z,-1.97
2018-03-20T06:47:37.161Z,-1.97
2018-03-20T06:48:37.159Z,-1.94
2018-03-20T06:49:37.166Z,-1.92
2018-03-20T06:50:37.064Z,-1.96
2018-03-20T06:51:37.038Z,-1.96
2018-03-20T06:52:37.012Z,-2.02
2018-03-20T06:53:36.975Z,-1.99
2018-03-20T06:54:36.983Z,-1.99
2018-03-20T06:55:36.901Z,-1.91
2018-03-20T06:56:36.869Z,-1.92
2018-03-20T06:57:36.847Z,-1.91
2018-03-20T06:58:36.805Z,-1.91
2018-03-20T06:59:36.829Z,-2.03
2018-03-20T07:00:36.816Z,-1.99
2018-03-20T07:01:36.741Z,-1.92
2018-03-20T07:02:36.714Z,-2.02
2018-03-20T07:03:36.692Z,-1.97
2018-03-20T07:04:36.606Z,-1.97
2018-03-20T07:05:36.569Z,-2.00
2018-03-20T07:06:36.542Z,-1.88
2018-03-20T07:07:36.504Z,-2.02
2018-03-20T07:08:36.512Z,-1.99
2018-03-20T07:09:36.457Z,-2.02
2018-03-20T07:10:36.448Z,-2.03
2018-03-20T07:11:36.379Z,-2.17
2018-03-20T07:12:36.338Z,-2.09
2018-03-20T07:13:36.308Z,-2.12
2018-03-20T07:14:36.315Z,-2.14
2018-03-20T07:15:36.250Z,-2.17
2018-03-20T07:16:36.209Z,-2.18
2018-03-20T07:17:36.180Z,-2.10
2018-03-20T07:18:36.232Z,-2.18
2018-03-20T07:19:36.150Z,-2.27
2018-03-20T07:20:36.071Z,-2.24
2018-03-20T07:21:36.039Z,-2.14
2018-03-20T07:22:36.014Z,-2.10
2018-03-20T07:23:35.971Z,-2.09
2018-03-20T07:24:36.014Z,-2.09
2018-03-20T07:25:35.902Z,-2.07
2018-03-20T07:26:35.873Z,-2.12
2018-03-20T07:27:35.843Z,-2.14
2018-03-20T07:28:35.810Z,-2.10
2018-03-20T07:29:35.830Z,-2.10
2018-03-20T07:30:35.734Z,-2.07
2018-03-20T07:31:35.780Z,-2.05
2018-03-20T07:32:35.671Z,-2.02
2018-03-20T07:33:35.639Z,-2.00
2018-03-20T07:34:35.654Z,-2.02
2018-03-20T07:35:35.629Z,-1.91
2018-03-20T07:36:35.552Z,-2.02
2018-03-20T07:37:35.525Z,-1.96
2018-03-20T07:38:35.475Z,-1.88
2018-03-20T07:39:35.440Z,-1.89
2018-03-20T07:40:35.466Z,-1.89
2018-03-20T07:41:35.371Z,-1.96
2018-03-20T07:42:35.346Z,-1.91
2018-03-20T07:43:35.314Z,-1.86
2018-03-20T07:44:35.274Z,-1.89
2018-03-20T07:45:35.298Z,-1.89
2018-03-20T07:46:35.217Z,-1.86
2018-03-20T07:47:35.178Z,-1.79
2018-03-20T07:48:35.191Z,-1.76
2018-03-20T07:49:35.116Z,-1.73
2018-03-20T07:50:35.095Z,-1.66
2018-03-20T07:51:35.097Z,-1.61
2018-03-20T07:52:35.011Z,-1.61
2018-03-20T07:53:34.982Z,-1.56
2018-03-20T07:54:34.948Z,-1.52
2018-03-20T07:55:34.960Z,-1.50
2018-03-20T07:56:34.942Z,-1.49
2018-03-20T07:57:34.854Z,-1.49
2018-03-20T07:58:34.821Z,-1.43
2018-03-20T07:59:34.786Z,-1.52
2018-03-20T08:00:34.755Z,-1.50
2018-03-20T08:01:34.801Z,-1.48
2018-03-20T08:02:34.734Z,-1.48
2018-03-20T08:03:34.656Z,-1.38
2018-03-20T08:04:34.673Z,-1.49
2018-03-20T08:05:34.596Z,-1.50
2018-03-20T08:06:34.562Z,-1.34
2018-03-20T08:07:34.581Z,-1.38
2018-03-20T08:08:34.501Z,-1.52
2018-03-20T08:09:34.478Z,-1.42
2018-03-20T08:10:34.427Z,-1.32
2018-03-20T08:11:34.404Z,-1.31
2018-03-20T08:12:34.418Z,-1.30
2018-03-20T08:13:34.341Z,-1.28
2018-03-20T08:14:34.302Z,-1.34
2018-03-20T08:15:34.390Z,-1.38
2018-03-20T08:16:34.236Z,-1.37
2018-03-20T08:17:34.348Z,-1.30
2018-03-20T08:18:34.173Z,-1.30
2018-03-20T08:19:34.138Z,-1.30
2018-03-20T08:20:34.118Z,-1.22
2018-03-20T08:21:34.078Z,-1.24
2018-03-20T08:22:34.104Z,-1.22
2018-03-20T08:23:34.018Z,-1.13
2018-03-20T08:24:33.984Z,-1.17
2018-03-20T08:25:33.948Z,-1.19
2018-03-20T08:26:33.926Z,-1.10
2018-03-20T08:27:33.938Z,-1.04
2018-03-20T08:28:33.853Z,-1.09
2018-03-20T08:29:33.824Z,-1.01
2018-03-20T08:30:33.808Z,-0.98
2018-03-20T08:31:33.756Z,-0.96
2018-03-20T08:32:33.781Z,-1.01
2018-03-20T08:33:33.731Z,-0.95
2018-03-20T08:34:33.676Z,-0.85
2018-03-20T08:35:33.641Z,-0.91
2018-03-20T08:36:33.643Z,-0.91
2018-03-20T08:37:33.571Z,-0.87
2018-03-20T08:38:33.538Z,-0.91
2018-03-20T08:39:33.580Z,-0.82
2018-03-20T08:40:33.470Z,-0.89
2018-03-20T08:41:33.438Z,-0.80
2018-03-20T08:42:33.412Z,-0.93
2018-03-20T08:43:33.382Z,-0.80
2018-03-20T08:44:33.394Z,-0.87
2018-03-20T08:45:33.311Z,-0.74
2018-03-20T08:46:33.286Z,-0.79
2018-03-20T08:47:33.250Z,-0.76
2018-03-20T08:48:33.245Z,-0.62
2018-03-20T08:49:33.244Z,-0.61
2018-03-20T08:50:33.153Z,-0.55
2018-03-20T08:51:33.137Z,-0.45
2018-03-20T08:52:33.101Z,-0.38
2018-03-20T08:53:33.058Z,-0.37
2018-03-20T08:54:33.079Z,-0.31
2018-03-20T08:55:32.996Z,-0.31
2018-03-20T08:56:32.968Z,-0.25
2018-03-20T08:57:32.933Z,-0.25
2018-03-20T08:58:32.902Z,-0.19
2018-03-20T08:59:32.932Z,-0.23
2018-03-20T09:00:32.884Z,-0.18
2018-03-20T09:01:32.810Z,-0.18
2018-03-20T09:02:32.779Z,-0.20
2018-03-20T09:03:32.749Z,-0.09
2018-03-20T09:04:32.757Z,-0.13
2018-03-20T09:05:32.735Z,-0.05
2018-03-20T09:06:32.660Z,-0.04
2018-03-20T09:07:32.654Z,-0.05
2018-03-20T09:08:32.609Z,0.10
2018-03-20T09:09:32.636Z,0.03
2018-03-20T09:10:32.600Z,0.10
2018-03-20T09:11:32.498Z,0.10
2018-03-20T09:12:32.619Z,0.23
2018-03-20T09:13:32.443Z,0.41
2018-03-20T09:14:32.528Z,0.35
2018-03-20T09:15:32.455Z,0.38
2018-03-20T09:16:32.417Z,0.39
2018-03-20T09:17:32.318Z,0.41
2018-03-20T09:18:32.330Z,0.48
2018-03-20T09:19:32.267Z,0.41
2018-03-20T09:20:32.230Z,0.42
2018-03-20T09:21:32.242Z,0.53
2018-03-20T09:22:32.172Z,0.50
2018-03-20T09:23:32.146Z,0.45
2018-03-20T09:24:32.142Z,0.53
2018-03-20T09:25:32.084Z,0.56
2018-03-20T09:26:32.100Z,0.64
2018-03-20T09:27:32.024Z,0.72
2018-03-20T09:28:31.993Z,0.76
2018-03-20T09:29:32.012Z,0.76
2018-03-20T09:30:31.952Z,0.74
2018-03-20T09:31:31.914Z,0.76
2018-03-20T09:32:31.923Z,0.84
2018-03-20T09:33:31.848Z,0.90
2018-03-20T09:34:31.816Z,0.96
2018-03-20T09:35:31.805Z,1.00
2018-03-20T09:36:31.766Z,1.15
2018-03-20T09:37:31.776Z,1.17
2018-03-20T09:38:31.703Z,1.36
2018-03-20T09:39:31.674Z,1.30
2018-03-20T09:40:31.692Z,1.40
2018-03-20T09:41:31.608Z,1.48
2018-03-20T09:42:31.632Z,1.53
2018-03-20T09:43:31.558Z,1.53
2018-03-20T09:44:31.537Z,1.53
2018-03-20T09:45:31.500Z,1.56
2018-03-20T09:46:31.472Z,1.58
2018-03-20T09:47:31.500Z,1.53
2018-03-20T09:48:31.466Z,1.48
2018-03-20T09:49:31.386Z,1.42
2018-03-20T09:50:31.359Z,1.42
2018-03-20T09:51:31.328Z,1.33
2018-03-20T09:52:31.307Z,1.29
2018-03-20T09:53:31.371Z,1.35
2018-03-20T09:54:31.245Z,1.21
2018-03-20T09:55:31.235Z,1.28
2018-03-20T09:56:31.188Z,1.22
2018-03-20T09:57:31.160Z,1.18
2018-03-20T09:58:31.171Z,1.15
2018-03-20T09:59:31.106Z,1.21
2018-03-20T10:00:31.084Z,1.33
2018-03-20T10:01:31.047Z,1.28
2018-03-20T10:02:31.026Z,1.22
2018-03-20T10:03:31.125Z,1.30
2018-03-20T10:04:30.987Z,1.22
2018-03-20T10:05:30.928Z,1.29
2018-03-20T10:06:30.942Z,1.22
2018-03-20T10:07:30.873Z,1.14
2018-03-20T10:08:30.842Z,1.21
2018-03-20T10:09:30.905Z,1.04
2018-03-20T10:10:30.789Z,1.12
2018-03-20T10:11:30.755Z,1.03
2018-03-20T10:12:30.736Z,0.99
2018-03-20T10:13:30.706Z,0.94
2018-03-20T10:14:30.715Z,0.85
2018-03-20T10:15:30.724Z,1.03
2018-03-20T10:16:30.684Z,1.03
2018-03-20T10:17:30.584Z,1.10
2018-03-20T10:18:30.600Z,1.03
2018-03-20T10:19:30.588Z,1.20
2018-03-20T10:20:30.496Z,1.15
2018-03-20T10:21:30.462Z,1.35
2018-03-20T10:22:30.573Z,1.24
2018-03-20T10:23:30.576Z,1.39
2018-03-20T10:24:30.381Z,1.32
2018-03-20T10:25:30.443Z,1.42
2018-03-20T10:26:30.321Z,1.47
2018-03-20T10:27:30.290Z,1.47
2018-03-20T10:28:30.299Z,1.54
2018-03-20T10:29:30.308Z,1.54
2018-03-20T10:30:30.200Z,1.64
2018-03-20T10:31:30.208Z,1.68
2018-03-20T10:32:30.173Z,1.68
2018-03-20T10:33:30.250Z,1.74
2018-03-20T10:34:30.189Z,1.86
2018-03-20T10:35:30.208Z,1.86
2018-03-20T10:36:30.036Z,1.87
2018-03-20T10:37:30.077Z,2.09
2018-03-20T10:38:30.016Z,2.11
2018-03-20T10:39:29.979Z,2.04
2018-03-20T10:40:30.023Z,1.94
2018-03-20T10:41:29.890Z,2.09
2018-03-20T10:42:29.861Z,2.12
2018-03-20T10:43:29.833Z,2.11
2018-03-20T10:44:29.850Z,2.11
2018-03-20T10:45:29.821Z,1.97
2018-03-20T10:46:29.741Z,2.04
2018-03-20T10:47:29.753Z,2.04
2018-03-20T10:48:29.691Z,2.01
2018-03-20T10:49:29.767Z,1.97
2018-03-20T10:50:29.656Z,1.82
2018-03-20T10:51:29.709Z,1.72
2018-03-20T10:52:29.665Z,1.69
2018-03-20T10:53:29.555Z,1.71
2018-03-20T10:54:29.970Z,1.69
2018-03-20T10:55:29.527Z,1.58
2018-03-20T10:56:29.468Z,1.74
2018-03-20T10:57:29.468Z,1.61
2018-03-20T10:58:29.431Z,1.60
2018-03-20T10:59:29.375Z,1.56
2018-03-20T11:00:29.402Z,1.50
2018-03-20T11:01:29.434Z,1.35
2018-03-20T11:02:29.292Z,1.28
2018-03-20T11:03:29.267Z,1.35
2018-03-20T11:04:29.238Z,1.38
2018-03-20T11:05:29.269Z,1.32
2018-03-20T11:06:29.270Z,1.42
2018-03-20T11:07:29.189Z,1.38
2018-03-20T11:08:29.174Z,1.36
2018-03-20T11:09:29.122Z,1.33
2018-03-20T11:10:29.197Z,1.32
2018-03-20T11:11:29.221Z,1.33
2018-03-20T11:12:29.003Z,1.35
2018-03-20T11:13:28.977Z,1.33
2018-03-20T11:14:28.946Z,1.35
2018-03-20T11:15:28.989Z,1.40
2018-03-20T11:16:28.890Z,1.44
2018-03-20T11:17:28.858Z,1.46
2018-03-20T11:18:28.831Z,1.56
2018-03-20T11:19:28.800Z,1.69
2018-03-20T11:20:28.816Z,1.68
2018-03-20T11:21:28.783Z,1.71
2018-03-20T11:22:28.714Z,1.76
2018-03-20T11:23:28.684Z,1.79
2018-03-20T11:24:28.652Z,1.86
2018-03-20T11:25:28.626Z,1.87
2018-03-20T11:26:28.639Z,1.83
2018-03-20T11:27:28.579Z,1.84
2018-03-20T11:28:28.546Z,1.68
2018-03-20T11:29:28.518Z,1.83
2018-03-20T11:30:28.497Z,1.69
2018-03-20T11:31:28.496Z,1.82
2018-03-20T11:32:28.436Z,1.89
2018-03-20T11:33:28.436Z,1.89
2018-03-20T11:34:28.370Z,1.84
2018-03-20T11:35:28.346Z,1.89
2018-03-20T11:36:28.346Z,2.05
2018-03-20T11:37:28.346Z,2.04
2018-03-20T11:38:28.365Z,2.06
2018-03-20T11:39:28.316Z,2.04
2018-03-20T11:40:28.239Z,2.09
2018-03-20T11:41:28.172Z,2.20
2018-03-20T11:42:28.175Z,2.11
2018-03-20T11:43:28.140Z,2.24
2018-03-20T11:44:28.123Z,2.23
2018-03-20T11:45:28.113Z,2.06
2018-03-20T11:46:28.020Z,2.05
2018-03-20T11:47:27.995Z,2.01
2018-03-20T11:48:27.967Z,2.06
2018-03-20T11:49:27.947Z,2.08
2018-03-20T11:50:27.959Z,2.09
2018-03-20T11:51:27.884Z,2.13
2018-03-20T11:52:27.860Z,2.27
2018-03-20T11:53:27.833Z,2.29
2018-03-20T11:54:27.796Z,2.30
2018-03-20T11:55:27.817Z,2.44
2018-03-20T11:56:27.770Z,2.41
2018-03-20T11:57:27.710Z,2.44
2018-03-20T11:58:27.685Z,2.42
2018-03-20T11:59:27.655Z,2.52
2018-03-20T12:00:27.701Z,2.58
2018-03-20T12:01:27.601Z,2.76
2018-03-20T12:02:27.595Z,2.67
2018-03-20T12:03:27.541Z,2.67
2018-03-20T12:04:27.520Z,2.78
2018-03-20T12:05:27.535Z,2.76
2018-03-20T12:06:27.458Z,2.95
2018-03-20T12:07:27.432Z,2.98
2018-03-20T12:08:27.450Z,2.96
2018-03-20T12:09:27.401Z,2.81
2018-03-20T12:10:27.509Z,2.77
2018-03-20T12:11:27.394Z,2.69
2018-03-20T12:12:27.402Z,2.60
2018-03-20T12:13:27.279Z,2.59
2018-03-20T12:14:27.238Z,2.69
2018-03-20T12:15:27.204Z,2.72
2018-03-20T12:16:27.181Z,2.87
2018-03-20T12:17:27.269Z,2.98
2018-03-20T12:18:27.191Z,3.06
2018-03-20T12:19:27.178Z,3.26
2018-03-20T12:20:27.195Z,3.32
2018-03-20T12:21:27.042Z,3.48
2018-03-20T12:22:27.100Z,3.46
2018-03-20T12:23:26.990Z,3.40
2018-03-20T12:24:27.162Z,3.53
2018-03-20T12:25:26.928Z,3.42
2018-03-20T12:26:26.908Z,3.27
2018-03-20T12:27:26.924Z,3.32
2018-03-20T12:28:26.886Z,3.24
2018-03-20T12:29:26.829Z,3.20
2018-03-20T12:30:26.848Z,3.19
2018-03-20T12:31:26.808Z,3.14
2018-03-20T12:32:26.747Z,3.02
2018-03-20T12:33:26.739Z,3.13
2018-03-20T12:34:26.689Z,3.03
2018-03-20T12:35:26.666Z,3.11
2018-03-20T12:36:27.050Z,3.14
2018-03-20T12:37:26.677Z,3.19
2018-03-20T12:38:26.572Z,3.14
2018-03-20T12:39:26.543Z,3.14
2018-03-20T12:40:26.573Z,3.30
2018-03-20T12:41:26.496Z,3.23
2018-03-20T12:42:26.577Z,3.26
2018-03-20T12:43:26.618Z,3.37
2018-03-20T12:44:26.483Z,3.56
2018-03-20T12:45:26.467Z,3.46
2018-03-20T12:46:26.446Z,3.49
2018-03-20T12:47:26.398Z,3.37
2018-03-20T12:48:26.337Z,3.40
2018-03-20T12:49:26.284Z,3.32
2018-03-20T12:50:26.337Z,3.40
2018-03-20T12:51:26.372Z,3.39
2018-03-20T12:52:26.216Z,3.43
2018-03-20T12:53:26.194Z,3.43
2018-03-20T12:54:26.172Z,3.40
2018-03-20T12:55:26.172Z,3.48
2018-03-20T12:56:26.153Z,3.57
2018-03-20T12:57:26.065Z,3.45
2018-03-20T12:58:26.041Z,3.53
2018-03-20T12:59:26.029Z,3.58
2018-03-20T13:00:25.976Z,3.61